sensor_id;sensor_type;location;lat;lon;timestamp;temperature;humidity
2579;DHT22;1299;48.282;14.398;2022-08-01T00:02:01;21.20;99.90
2579;DHT22;1299;48.282;14.398;2022-08-01T00:04:28;21.20;99.90
2579;DHT22;1299;48.282;14.398;2022-08-01T00:06:57;21.30;99.90
2579;DHT22;1299;48.282;14.398;2022-08-01T00:09:24;21.30;99.90
2579;DHT22;1299;48.282;14.398;2022-08-01T00:11:52;21.30;99.90
2579;DHT22;1299;48.282;14.398;2022-08-01T00:14:19;21.30;99.90
2579;DHT22;1299;48.282;14.398;2022-08-01T00:16:46;21.20;99.90
2579;DHT22;1299;48.282;14.398;2022-08-01T00:19:13;21.10;99.90
2579;DHT22;1299;48.282;14.398;2022-08-01T00:21:41;21.10;99.90
2579;DHT22;1299;48.282;14.398;2022-08-01T00:24:10;21.10;99.90
2579;DHT22;1299;48.282;14.398;2022-08-01T00:26:37;21.10;99.90
2579;DHT22;1299;48.282;14.398;2022-08-01T00:29:05;21.00;99.90
2579;DHT22;1299;48.282;14.398;2022-08-01T00:31:32;21.00;99.90
2579;DHT22;1299;48.282;14.398;2022-08-01T00:33:59;21.00;99.90
2579;DHT22;1299;48.282;14.398;2022-08-01T00:36:27;21.10;99.90
2579;DHT22;1299;48.282;14.398;2022-08-01T00:38:54;21.00;99.90
2579;DHT22;1299;48.282;14.398;2022-08-01T00:41:23;21.00;99.90
2579;DHT22;1299;48.282;14.398;2022-08-01T00:43:50;20.90;99.90
2579;DHT22;1299;48.282;14.398;2022-08-01T00:46:17;20.90;99.90
2579;DHT22;1299;48.282;14.398;2022-08-01T00:48:44;20.70;99.90
2579;DHT22;1299;48.282;14.398;2022-08-01T00:51:13;20.80;99.90
2579;DHT22;1299;48.282;14.398;2022-08-01T00:53:40;20.90;99.90
2579;DHT22;1299;48.282;14.398;2022-08-01T00:56:07;20.90;99.90
2579;DHT22;1299;48.282;14.398;2022-08-01T00:58:37;20.90;99.90
2579;DHT22;1299;48.282;14.398;2022-08-01T01:01:04;21.00;99.90
2579;DHT22;1299;48.282;14.398;2022-08-01T01:03:31;21.00;99.90
2579;DHT22;1299;48.282;14.398;2022-08-01T01:06:11;21.00;99.90
2579;DHT22;1299;48.282;14.398;2022-08-01T01:08:45;21.00;99.90
2579;DHT22;1299;48.282;14.398;2022-08-01T01:11:20;21.10;99.90
2579;DHT22;1299;48.282;14.398;2022-08-01T01:13:56;21.00;99.90
2579;DHT22;1299;48.282;14.398;2022-08-01T01:16:26;20.90;99.90
2579;DHT22;1299;48.282;14.398;2022-08-01T01:18:56;20.90;99.90
2579;DHT22;1299;48.282;14.398;2022-08-01T01:21:55;20.80;99.90
2579;DHT22;1299;48.282;14.398;2022-08-01T01:24:34;20.70;99.90
2579;DHT22;1299;48.282;14.398;2022-08-01T01:27:10;20.80;99.90
2579;DHT22;1299;48.282;14.398;2022-08-01T01:29:44;20.70;99.90
2579;DHT22;1299;48.282;14.398;2022-08-01T01:32:17;20.70;99.90
2579;DHT22;1299;48.282;14.398;2022-08-01T01:34:49;20.70;99.90
2579;DHT22;1299;48.282;14.398;2022-08-01T01:37:20;20.60;99.90
2579;DHT22;1299;48.282;14.398;2022-08-01T01:39:50;20.60;99.90
2579;DHT22;1299;48.282;14.398;2022-08-01T01:42:19;20.60;99.90
2579;DHT22;1299;48.282;14.398;2022-08-01T01:44:50;20.60;99.90
2579;DHT22;1299;48.282;14.398;2022-08-01T01:47:18;20.60;99.90
2579;DHT22;1299;48.282;14.398;2022-08-01T01:49:46;20.60;99.90
2579;DHT22;1299;48.282;14.398;2022-08-01T01:52:16;20.50;99.90
2579;DHT22;1299;48.282;14.398;2022-08-01T01:54:48;20.50;99.90
2579;DHT22;1299;48.282;14.398;2022-08-01T01:57:17;20.50;99.90
2579;DHT22;1299;48.282;14.398;2022-08-01T01:59:47;20.50;99.90
2579;DHT22;1299;48.282;14.398;2022-08-01T02:02:17;20.50;99.90
2579;DHT22;1299;48.282;14.398;2022-08-01T02:04:46;20.50;99.90
2579;DHT22;1299;48.282;14.398;2022-08-01T02:07:19;20.50;99.90
2579;DHT22;1299;48.282;14.398;2022-08-01T02:09:47;20.40;99.90
2579;DHT22;1299;48.282;14.398;2022-08-01T02:12:16;20.50;99.90
2579;DHT22;1299;48.282;14.398;2022-08-01T02:14:45;20.40;99.90
2579;DHT22;1299;48.282;14.398;2022-08-01T02:17:17;20.40;99.90
2579;DHT22;1299;48.282;14.398;2022-08-01T02:19:45;20.50;99.90
2579;DHT22;1299;48.282;14.398;2022-08-01T02:22:19;20.50;99.90
2579;DHT22;1299;48.282;14.398;2022-08-01T02:24:52;20.40;99.90
2579;DHT22;1299;48.282;14.398;2022-08-01T02:27:25;20.40;99.90
2579;DHT22;1299;48.282;14.398;2022-08-01T02:29:59;20.30;99.90
2579;DHT22;1299;48.282;14.398;2022-08-01T02:32:33;20.30;99.90
2579;DHT22;1299;48.282;14.398;2022-08-01T02:35:05;20.30;99.90
2579;DHT22;1299;48.282;14.398;2022-08-01T02:37:34;20.20;99.90
2579;DHT22;1299;48.282;14.398;2022-08-01T02:40:05;20.20;99.90
2579;DHT22;1299;48.282;14.398;2022-08-01T02:42:35;20.10;99.90
2579;DHT22;1299;48.282;14.398;2022-08-01T02:45:06;20.20;99.90
2579;DHT22;1299;48.282;14.398;2022-08-01T02:47:37;20.10;99.90
2579;DHT22;1299;48.282;14.398;2022-08-01T02:50:06;20.10;99.90
2579;DHT22;1299;48.282;14.398;2022-08-01T02:52:36;20.00;99.90
2579;DHT22;1299;48.282;14.398;2022-08-01T02:55:05;20.00;99.90
2579;DHT22;1299;48.282;14.398;2022-08-01T02:57:34;20.00;99.90
2579;DHT22;1299;48.282;14.398;2022-08-01T03:00:04;20.00;99.90
2579;DHT22;1299;48.282;14.398;2022-08-01T03:02:35;19.90;99.90
2579;DHT22;1299;48.282;14.398;2022-08-01T03:05:04;19.90;99.90
2579;DHT22;1299;48.282;14.398;2022-08-01T03:07:32;19.90;99.90
2579;DHT22;1299;48.282;14.398;2022-08-01T03:10:00;19.90;99.90
2579;DHT22;1299;48.282;14.398;2022-08-01T03:12:31;19.80;99.90
2579;DHT22;1299;48.282;14.398;2022-08-01T03:15:01;19.80;99.90
2579;DHT22;1299;48.282;14.398;2022-08-01T03:17:30;19.90;99.90
2579;DHT22;1299;48.282;14.398;2022-08-01T03:20:00;19.90;99.90
2579;DHT22;1299;48.282;14.398;2022-08-01T03:22:30;19.90;99.90
2579;DHT22;1299;48.282;14.398;2022-08-01T03:24:59;19.90;99.90
2579;DHT22;1299;48.282;14.398;2022-08-01T03:27:29;19.90;99.90
2579;DHT22;1299;48.282;14.398;2022-08-01T03:29:58;19.90;99.90
2579;DHT22;1299;48.282;14.398;2022-08-01T03:32:27;19.90;99.90
2579;DHT22;1299;48.282;14.398;2022-08-01T03:34:55;19.90;99.90
2579;DHT22;1299;48.282;14.398;2022-08-01T03:37:27;19.80;99.90
2579;DHT22;1299;48.282;14.398;2022-08-01T03:39:58;19.80;99.90
2579;DHT22;1299;48.282;14.398;2022-08-01T03:42:31;19.80;99.90
2579;DHT22;1299;48.282;14.398;2022-08-01T03:45:02;19.80;99.90
2579;DHT22;1299;48.282;14.398;2022-08-01T03:47:32;19.90;99.90
2579;DHT22;1299;48.282;14.398;2022-08-01T03:50:02;19.90;99.90
2579;DHT22;1299;48.282;14.398;2022-08-01T03:52:32;19.90;99.90
2579;DHT22;1299;48.282;14.398;2022-08-01T03:55:04;19.90;99.90
2579;DHT22;1299;48.282;14.398;2022-08-01T03:57:33;19.90;99.90
2579;DHT22;1299;48.282;14.398;2022-08-01T04:00:02;19.80;99.90
2579;DHT22;1299;48.282;14.398;2022-08-01T04:02:32;19.90;99.90
2579;DHT22;1299;48.282;14.398;2022-08-01T04:04:59;19.90;99.90
2579;DHT22;1299;48.282;14.398;2022-08-01T04:07:31;19.90;99.90
2579;DHT22;1299;48.282;14.398;2022-08-01T04:10:00;19.90;99.90
2579;DHT22;1299;48.282;14.398;2022-08-01T04:12:27;19.80;99.90
2579;DHT22;1299;48.282;14.398;2022-08-01T04:14:54;19.90;99.90
2579;DHT22;1299;48.282;14.398;2022-08-01T04:17:21;19.80;99.90
2579;DHT22;1299;48.282;14.398;2022-08-01T04:19:49;19.90;99.90
2579;DHT22;1299;48.282;14.398;2022-08-01T04:22:16;19.90;99.90
2579;DHT22;1299;48.282;14.398;2022-08-01T04:24:47;20.00;99.90
2579;DHT22;1299;48.282;14.398;2022-08-01T04:27:19;19.90;99.90
2579;DHT22;1299;48.282;14.398;2022-08-01T04:29:48;20.00;99.90
2579;DHT22;1299;48.282;14.398;2022-08-01T04:32:19;20.00;99.90
2579;DHT22;1299;48.282;14.398;2022-08-01T04:34:48;20.00;99.90
2579;DHT22;1299;48.282;14.398;2022-08-01T04:37:17;20.10;99.90
2579;DHT22;1299;48.282;14.398;2022-08-01T04:39:46;20.10;99.90
2579;DHT22;1299;48.282;14.398;2022-08-01T04:42:16;20.10;99.90
2579;DHT22;1299;48.282;14.398;2022-08-01T04:44:43;20.10;99.90
2579;DHT22;1299;48.282;14.398;2022-08-01T04:47:11;20.10;99.90
2579;DHT22;1299;48.282;14.398;2022-08-01T04:49:40;20.20;99.90
2579;DHT22;1299;48.282;14.398;2022-08-01T04:52:08;20.20;99.90
2579;DHT22;1299;48.282;14.398;2022-08-01T04:54:35;20.20;99.90
2579;DHT22;1299;48.282;14.398;2022-08-01T04:57:04;20.30;99.90
2579;DHT22;1299;48.282;14.398;2022-08-01T04:59:36;20.30;99.90
2579;DHT22;1299;48.282;14.398;2022-08-01T05:02:09;20.30;99.90
2579;DHT22;1299;48.282;14.398;2022-08-01T05:04:38;20.30;99.90
2579;DHT22;1299;48.282;14.398;2022-08-01T05:07:06;20.40;99.90
2579;DHT22;1299;48.282;14.398;2022-08-01T05:09:35;20.50;99.90
2579;DHT22;1299;48.282;14.398;2022-08-01T05:12:04;20.60;99.90
2579;DHT22;1299;48.282;14.398;2022-08-01T05:14:33;20.60;99.90
2579;DHT22;1299;48.282;14.398;2022-08-01T05:17:03;20.70;99.90
2579;DHT22;1299;48.282;14.398;2022-08-01T05:19:30;20.80;99.90
2579;DHT22;1299;48.282;14.398;2022-08-01T05:21:58;20.80;99.90
2579;DHT22;1299;48.282;14.398;2022-08-01T05:24:26;20.90;99.90
2579;DHT22;1299;48.282;14.398;2022-08-01T05:26:55;21.00;99.90
2579;DHT22;1299;48.282;14.398;2022-08-01T05:29:22;21.00;99.90
2579;DHT22;1299;48.282;14.398;2022-08-01T05:31:51;21.00;99.90
2579;DHT22;1299;48.282;14.398;2022-08-01T05:34:20;20.80;99.90
2579;DHT22;1299;48.282;14.398;2022-08-01T05:36:47;21.00;99.90
2579;DHT22;1299;48.282;14.398;2022-08-01T05:39:15;21.10;99.90
2579;DHT22;1299;48.282;14.398;2022-08-01T05:41:42;21.20;99.90
2579;DHT22;1299;48.282;14.398;2022-08-01T05:44:09;21.30;99.90
2579;DHT22;1299;48.282;14.398;2022-08-01T05:46:37;21.30;99.90
2579;DHT22;1299;48.282;14.398;2022-08-01T05:49:06;21.30;99.90
2579;DHT22;1299;48.282;14.398;2022-08-01T05:51:33;21.30;99.90
2579;DHT22;1299;48.282;14.398;2022-08-01T05:54:00;21.30;99.90
2579;DHT22;1299;48.282;14.398;2022-08-01T05:56:28;21.30;99.90
2579;DHT22;1299;48.282;14.398;2022-08-01T05:58:55;21.10;99.90
2579;DHT22;1299;48.282;14.398;2022-08-01T06:01:22;21.30;99.90
2579;DHT22;1299;48.282;14.398;2022-08-01T06:03:49;21.50;99.90
2579;DHT22;1299;48.282;14.398;2022-08-01T06:06:19;21.60;99.90
2579;DHT22;1299;48.282;14.398;2022-08-01T06:08:46;21.60;99.90
2579;DHT22;1299;48.282;14.398;2022-08-01T06:11:14;21.70;99.90
2579;DHT22;1299;48.282;14.398;2022-08-01T06:13:41;21.80;99.90
2579;DHT22;1299;48.282;14.398;2022-08-01T06:16:08;21.70;99.90
2579;DHT22;1299;48.282;14.398;2022-08-01T06:18:35;21.70;99.90
2579;DHT22;1299;48.282;14.398;2022-08-01T06:21:03;21.60;99.90
2579;DHT22;1299;48.282;14.398;2022-08-01T06:23:31;21.80;99.90
2579;DHT22;1299;48.282;14.398;2022-08-01T06:25:59;21.70;99.90
2579;DHT22;1299;48.282;14.398;2022-08-01T06:28:26;21.80;99.90
2579;DHT22;1299;48.282;14.398;2022-08-01T06:30:53;22.00;99.90
2579;DHT22;1299;48.282;14.398;2022-08-01T06:33:21;22.10;99.90
2579;DHT22;1299;48.282;14.398;2022-08-01T06:35:48;22.10;99.90
2579;DHT22;1299;48.282;14.398;2022-08-01T06:38:15;22.10;99.90
2579;DHT22;1299;48.282;14.398;2022-08-01T06:40:44;22.10;99.90
2579;DHT22;1299;48.282;14.398;2022-08-01T06:43:11;22.20;99.90
2579;DHT22;1299;48.282;14.398;2022-08-01T06:45:38;22.30;99.90
2579;DHT22;1299;48.282;14.398;2022-08-01T06:48:06;22.50;99.90
2579;DHT22;1299;48.282;14.398;2022-08-01T06:50:33;22.50;99.90
2579;DHT22;1299;48.282;14.398;2022-08-01T06:53:03;22.50;99.90
2579;DHT22;1299;48.282;14.398;2022-08-01T06:55:30;22.70;99.90
2579;DHT22;1299;48.282;14.398;2022-08-01T06:57:59;22.80;99.90
2579;DHT22;1299;48.282;14.398;2022-08-01T07:00:27;22.90;99.90
2579;DHT22;1299;48.282;14.398;2022-08-01T07:02:55;22.80;99.90
2579;DHT22;1299;48.282;14.398;2022-08-01T07:05:24;23.00;99.90
2579;DHT22;1299;48.282;14.398;2022-08-01T07:07:51;23.10;99.90
2579;DHT22;1299;48.282;14.398;2022-08-01T07:10:19;23.00;99.90
2579;DHT22;1299;48.282;14.398;2022-08-01T07:12:46;23.10;99.90
2579;DHT22;1299;48.282;14.398;2022-08-01T07:15:14;23.30;99.90
2579;DHT22;1299;48.282;14.398;2022-08-01T07:17:42;23.40;99.90
2579;DHT22;1299;48.282;14.398;2022-08-01T07:20:12;23.40;99.90
2579;DHT22;1299;48.282;14.398;2022-08-01T07:22:39;23.50;99.90
2579;DHT22;1299;48.282;14.398;2022-08-01T07:25:07;23.60;99.90
2579;DHT22;1299;48.282;14.398;2022-08-01T07:27:35;23.70;99.90
2579;DHT22;1299;48.282;14.398;2022-08-01T07:30:03;23.80;99.90
2579;DHT22;1299;48.282;14.398;2022-08-01T07:32:32;23.90;99.90
2579;DHT22;1299;48.282;14.398;2022-08-01T07:35:00;23.90;99.90
2579;DHT22;1299;48.282;14.398;2022-08-01T07:37:28;23.90;99.90
2579;DHT22;1299;48.282;14.398;2022-08-01T07:39:55;23.90;99.90
2579;DHT22;1299;48.282;14.398;2022-08-01T07:42:22;23.90;99.90
2579;DHT22;1299;48.282;14.398;2022-08-01T07:44:49;24.10;99.90
2579;DHT22;1299;48.282;14.398;2022-08-01T07:47:23;24.00;99.90
2579;DHT22;1299;48.282;14.398;2022-08-01T07:49:52;24.20;99.90
2579;DHT22;1299;48.282;14.398;2022-08-01T07:52:19;24.20;99.90
2579;DHT22;1299;48.282;14.398;2022-08-01T07:54:46;24.20;99.90
2579;DHT22;1299;48.282;14.398;2022-08-01T07:57:14;24.30;99.90
2579;DHT22;1299;48.282;14.398;2022-08-01T07:59:41;24.30;99.90
2579;DHT22;1299;48.282;14.398;2022-08-01T08:02:09;24.40;99.90
2579;DHT22;1299;48.282;14.398;2022-08-01T08:04:36;24.50;99.90
2579;DHT22;1299;48.282;14.398;2022-08-01T08:07:05;24.60;99.90
2579;DHT22;1299;48.282;14.398;2022-08-01T08:09:32;24.70;99.90
2579;DHT22;1299;48.282;14.398;2022-08-01T08:11:59;24.70;99.90
2579;DHT22;1299;48.282;14.398;2022-08-01T08:14:27;24.80;99.90
2579;DHT22;1299;48.282;14.398;2022-08-01T08:16:55;25.00;99.90
2579;DHT22;1299;48.282;14.398;2022-08-01T08:19:22;25.00;99.90
2579;DHT22;1299;48.282;14.398;2022-08-01T08:21:50;25.10;99.90
2579;DHT22;1299;48.282;14.398;2022-08-01T08:24:19;25.40;99.90
2579;DHT22;1299;48.282;14.398;2022-08-01T08:26:47;25.30;99.90
2579;DHT22;1299;48.282;14.398;2022-08-01T08:29:16;25.40;99.90
2579;DHT22;1299;48.282;14.398;2022-08-01T08:31:44;25.50;99.90
2579;DHT22;1299;48.282;14.398;2022-08-01T08:34:12;25.70;99.90
2579;DHT22;1299;48.282;14.398;2022-08-01T08:36:39;25.90;99.90
2579;DHT22;1299;48.282;14.398;2022-08-01T08:39:07;26.20;99.90
2579;DHT22;1299;48.282;14.398;2022-08-01T08:41:36;26.50;99.90
2579;DHT22;1299;48.282;14.398;2022-08-01T08:44:04;26.70;99.90
2579;DHT22;1299;48.282;14.398;2022-08-01T08:46:33;26.90;99.90
2579;DHT22;1299;48.282;14.398;2022-08-01T08:49:02;27.00;99.90
2579;DHT22;1299;48.282;14.398;2022-08-01T08:51:31;27.10;99.90
2579;DHT22;1299;48.282;14.398;2022-08-01T08:54:00;27.10;99.90
2579;DHT22;1299;48.282;14.398;2022-08-01T08:56:30;27.20;99.90
2579;DHT22;1299;48.282;14.398;2022-08-01T08:59:02;27.10;99.90
2579;DHT22;1299;48.282;14.398;2022-08-01T09:01:31;27.20;99.90
2579;DHT22;1299;48.282;14.398;2022-08-01T09:04:00;27.40;99.90
2579;DHT22;1299;48.282;14.398;2022-08-01T09:06:28;27.60;99.90
2579;DHT22;1299;48.282;14.398;2022-08-01T09:08:55;27.70;99.90
2579;DHT22;1299;48.282;14.398;2022-08-01T09:11:23;28.00;99.90
2579;DHT22;1299;48.282;14.398;2022-08-01T09:14:09;28.20;99.90
2579;DHT22;1299;48.282;14.398;2022-08-01T09:16:39;28.30;99.90
2579;DHT22;1299;48.282;14.398;2022-08-01T09:19:12;28.40;99.90
2579;DHT22;1299;48.282;14.398;2022-08-01T09:21:54;28.40;99.90
2579;DHT22;1299;48.282;14.398;2022-08-01T09:24:24;28.50;99.90
2579;DHT22;1299;48.282;14.398;2022-08-01T09:26:51;28.70;99.90
2579;DHT22;1299;48.282;14.398;2022-08-01T09:29:24;28.60;99.90
2579;DHT22;1299;48.282;14.398;2022-08-01T09:31:52;28.70;99.90
2579;DHT22;1299;48.282;14.398;2022-08-01T09:34:25;28.70;99.90
2579;DHT22;1299;48.282;14.398;2022-08-01T09:36:53;28.70;99.90
2579;DHT22;1299;48.282;14.398;2022-08-01T09:39:24;28.70;99.90
2579;DHT22;1299;48.282;14.398;2022-08-01T09:41:52;28.90;99.90
2579;DHT22;1299;48.282;14.398;2022-08-01T09:44:37;28.70;99.90
2579;DHT22;1299;48.282;14.398;2022-08-01T09:47:04;29.00;99.90
2579;DHT22;1299;48.282;14.398;2022-08-01T09:49:33;29.40;99.90
2579;DHT22;1299;48.282;14.398;2022-08-01T09:52:11;29.40;99.90
2579;DHT22;1299;48.282;14.398;2022-08-01T09:54:38;29.50;99.80
2579;DHT22;1299;48.282;14.398;2022-08-01T09:57:11;29.70;99.90
2579;DHT22;1299;48.282;14.398;2022-08-01T09:59:42;29.80;98.40
2579;DHT22;1299;48.282;14.398;2022-08-01T10:02:10;29.60;97.90
2579;DHT22;1299;48.282;14.398;2022-08-01T10:04:49;29.60;98.50
2579;DHT22;1299;48.282;14.398;2022-08-01T10:07:17;29.50;97.30
2579;DHT22;1299;48.282;14.398;2022-08-01T10:09:46;29.70;98.00
2579;DHT22;1299;48.282;14.398;2022-08-01T10:12:15;29.70;97.60
2579;DHT22;1299;48.282;14.398;2022-08-01T10:14:46;29.90;98.40
2579;DHT22;1299;48.282;14.398;2022-08-01T10:17:17;30.00;97.80
2579;DHT22;1299;48.282;14.398;2022-08-01T10:19:45;30.10;97.40
2579;DHT22;1299;48.282;14.398;2022-08-01T10:22:15;30.00;98.60
2579;DHT22;1299;48.282;14.398;2022-08-01T10:24:44;30.20;98.30
2579;DHT22;1299;48.282;14.398;2022-08-01T10:27:15;30.10;97.20
2579;DHT22;1299;48.282;14.398;2022-08-01T10:29:50;30.00;98.00
2579;DHT22;1299;48.282;14.398;2022-08-01T10:32:19;30.10;96.90
2579;DHT22;1299;48.282;14.398;2022-08-01T10:34:46;30.40;96.70
2579;DHT22;1299;48.282;14.398;2022-08-01T10:37:15;30.30;96.10
2579;DHT22;1299;48.282;14.398;2022-08-01T10:39:43;30.60;96.10
2579;DHT22;1299;48.282;14.398;2022-08-01T10:42:11;30.30;95.00
2579;DHT22;1299;48.282;14.398;2022-08-01T10:44:39;30.10;96.20
2579;DHT22;1299;48.282;14.398;2022-08-01T10:47:10;30.40;96.20
2579;DHT22;1299;48.282;14.398;2022-08-01T10:49:43;30.60;96.20
2579;DHT22;1299;48.282;14.398;2022-08-01T10:52:15;30.60;95.50
2579;DHT22;1299;48.282;14.398;2022-08-01T10:54:42;30.60;96.30
2579;DHT22;1299;48.282;14.398;2022-08-01T10:57:10;30.70;96.20
2579;DHT22;1299;48.282;14.398;2022-08-01T10:59:48;30.70;94.80
2579;DHT22;1299;48.282;14.398;2022-08-01T11:02:27;30.60;95.40
2579;DHT22;1299;48.282;14.398;2022-08-01T11:04:57;30.80;96.40
2579;DHT22;1299;48.282;14.398;2022-08-01T11:07:42;31.00;95.20
2579;DHT22;1299;48.282;14.398;2022-08-01T11:10:19;31.20;95.00
2579;DHT22;1299;48.282;14.398;2022-08-01T11:12:48;31.10;93.80
2579;DHT22;1299;48.282;14.398;2022-08-01T11:15:21;31.20;93.60
2579;DHT22;1299;48.282;14.398;2022-08-01T11:17:54;31.00;93.10
2579;DHT22;1299;48.282;14.398;2022-08-01T11:20:23;30.80;94.30
2579;DHT22;1299;48.282;14.398;2022-08-01T11:23:25;30.90;94.40
2579;DHT22;1299;48.282;14.398;2022-08-01T11:28:35;30.90;93.00
2579;DHT22;1299;48.282;14.398;2022-08-01T11:31:28;31.10;93.70
2579;DHT22;1299;48.282;14.398;2022-08-01T11:33:58;31.10;93.60
2579;DHT22;1299;48.282;14.398;2022-08-01T11:36:25;31.50;92.80
2579;DHT22;1299;48.282;14.398;2022-08-01T11:39:12;31.40;93.00
2579;DHT22;1299;48.282;14.398;2022-08-01T11:41:40;31.50;92.70
2579;DHT22;1299;48.282;14.398;2022-08-01T11:44:09;31.40;92.20
2579;DHT22;1299;48.282;14.398;2022-08-01T11:46:48;31.60;93.40
2579;DHT22;1299;48.282;14.398;2022-08-01T11:49:43;31.60;93.10
2579;DHT22;1299;48.282;14.398;2022-08-01T11:52:14;31.80;92.90
2579;DHT22;1299;48.282;14.398;2022-08-01T11:54:43;31.70;92.40
2579;DHT22;1299;48.282;14.398;2022-08-01T11:57:12;31.50;92.00
2579;DHT22;1299;48.282;14.398;2022-08-01T11:59:41;31.30;92.80
2579;DHT22;1299;48.282;14.398;2022-08-01T12:02:32;31.20;91.80
2579;DHT22;1299;48.282;14.398;2022-08-01T12:05:04;31.00;93.20
2579;DHT22;1299;48.282;14.398;2022-08-01T12:07:33;30.80;92.70
2579;DHT22;1299;48.282;14.398;2022-08-01T12:10:02;31.10;92.00
2579;DHT22;1299;48.282;14.398;2022-08-01T12:12:31;31.40;91.50
2579;DHT22;1299;48.282;14.398;2022-08-01T12:15:00;31.70;91.90
2579;DHT22;1299;48.282;14.398;2022-08-01T12:17:32;32.10;90.90
2579;DHT22;1299;48.282;14.398;2022-08-01T12:20:02;32.10;91.70
2579;DHT22;1299;48.282;14.398;2022-08-01T12:22:29;32.10;90.20
2579;DHT22;1299;48.282;14.398;2022-08-01T12:25:05;31.80;91.20
2579;DHT22;1299;48.282;14.398;2022-08-01T12:27:34;31.70;90.20
2579;DHT22;1299;48.282;14.398;2022-08-01T12:30:03;32.00;90.50
2579;DHT22;1299;48.282;14.398;2022-08-01T12:32:33;32.10;90.10
2579;DHT22;1299;48.282;14.398;2022-08-01T12:35:05;32.20;89.50
2579;DHT22;1299;48.282;14.398;2022-08-01T12:37:34;32.10;90.00
2579;DHT22;1299;48.282;14.398;2022-08-01T12:40:08;32.00;88.90
2579;DHT22;1299;48.282;14.398;2022-08-01T12:42:37;31.70;89.90
2579;DHT22;1299;48.282;14.398;2022-08-01T12:45:07;31.70;89.70
2579;DHT22;1299;48.282;14.398;2022-08-01T12:47:38;31.40;88.60
2579;DHT22;1299;48.282;14.398;2022-08-01T12:50:10;31.20;90.00
2579;DHT22;1299;48.282;14.398;2022-08-01T12:52:38;31.10;90.00
2579;DHT22;1299;48.282;14.398;2022-08-01T12:55:09;31.00;90.50
2579;DHT22;1299;48.282;14.398;2022-08-01T12:57:38;30.50;91.90
2579;DHT22;1299;48.282;14.398;2022-08-01T13:00:15;30.40;97.90
2579;DHT22;1299;48.282;14.398;2022-08-01T13:02:45;30.40;96.30
2579;DHT22;1299;48.282;14.398;2022-08-01T13:05:15;30.50;94.90
2579;DHT22;1299;48.282;14.398;2022-08-01T13:07:46;30.70;94.20
2579;DHT22;1299;48.282;14.398;2022-08-01T13:10:15;30.50;94.80
2579;DHT22;1299;48.282;14.398;2022-08-01T13:12:50;30.50;94.80
2579;DHT22;1299;48.282;14.398;2022-08-01T13:15:19;30.50;94.10
2579;DHT22;1299;48.282;14.398;2022-08-01T13:17:47;30.60;94.80
2579;DHT22;1299;48.282;14.398;2022-08-01T13:20:28;30.60;94.60
2579;DHT22;1299;48.282;14.398;2022-08-01T13:23:10;30.50;93.50
2579;DHT22;1299;48.282;14.398;2022-08-01T13:25:51;29.40;94.80
2579;DHT22;1299;48.282;14.398;2022-08-01T13:28:21;28.40;97.10
2579;DHT22;1299;48.282;14.398;2022-08-01T13:30:57;27.50;97.80
2579;DHT22;1299;48.282;14.398;2022-08-01T13:33:26;26.70;99.90
2579;DHT22;1299;48.282;14.398;2022-08-01T13:35:56;26.30;99.90
2579;DHT22;1299;48.282;14.398;2022-08-01T13:38:23;25.50;99.90
2579;DHT22;1299;48.282;14.398;2022-08-01T13:41:04;25.20;99.90
2579;DHT22;1299;48.282;14.398;2022-08-01T13:43:32;25.10;99.90
2579;DHT22;1299;48.282;14.398;2022-08-01T13:46:00;25.00;99.90
2579;DHT22;1299;48.282;14.398;2022-08-01T13:48:31;25.20;99.90
2579;DHT22;1299;48.282;14.398;2022-08-01T13:51:00;25.20;99.90
2579;DHT22;1299;48.282;14.398;2022-08-01T13:53:27;25.00;99.90
2579;DHT22;1299;48.282;14.398;2022-08-01T13:55:56;25.00;99.90
2579;DHT22;1299;48.282;14.398;2022-08-01T13:58:23;25.20;99.90
2579;DHT22;1299;48.282;14.398;2022-08-01T14:00:51;25.50;99.90
2579;DHT22;1299;48.282;14.398;2022-08-01T14:03:18;25.60;99.90
2579;DHT22;1299;48.282;14.398;2022-08-01T14:05:45;25.50;99.90
2579;DHT22;1299;48.282;14.398;2022-08-01T14:08:14;25.80;99.90
2579;DHT22;1299;48.282;14.398;2022-08-01T14:10:41;25.90;99.90
2579;DHT22;1299;48.282;14.398;2022-08-01T14:13:08;26.10;99.90
2579;DHT22;1299;48.282;14.398;2022-08-01T14:15:35;26.10;99.90
2579;DHT22;1299;48.282;14.398;2022-08-01T14:18:02;26.40;99.90
2579;DHT22;1299;48.282;14.398;2022-08-01T14:20:29;26.80;99.90
2579;DHT22;1299;48.282;14.398;2022-08-01T14:22:56;27.20;99.90
2579;DHT22;1299;48.282;14.398;2022-08-01T14:25:25;27.50;99.90
2579;DHT22;1299;48.282;14.398;2022-08-01T14:27:52;27.70;99.90
2579;DHT22;1299;48.282;14.398;2022-08-01T14:30:19;28.00;99.90
2579;DHT22;1299;48.282;14.398;2022-08-01T14:32:46;28.30;99.90
2579;DHT22;1299;48.282;14.398;2022-08-01T14:35:13;28.40;99.90
2579;DHT22;1299;48.282;14.398;2022-08-01T14:37:39;28.30;99.90
2579;DHT22;1299;48.282;14.398;2022-08-01T14:40:07;28.50;99.90
2579;DHT22;1299;48.282;14.398;2022-08-01T14:42:36;28.90;99.90
2579;DHT22;1299;48.282;14.398;2022-08-01T14:45:05;29.10;99.90
2579;DHT22;1299;48.282;14.398;2022-08-01T14:47:34;29.20;99.90
2579;DHT22;1299;48.282;14.398;2022-08-01T14:50:02;29.40;99.90
2579;DHT22;1299;48.282;14.398;2022-08-01T14:52:29;29.60;99.90
2579;DHT22;1299;48.282;14.398;2022-08-01T14:54:56;29.70;99.90
2579;DHT22;1299;48.282;14.398;2022-08-01T14:57:23;29.90;99.90
2579;DHT22;1299;48.282;14.398;2022-08-01T14:59:51;30.10;99.90
2579;DHT22;1299;48.282;14.398;2022-08-01T15:02:18;29.90;99.90
2579;DHT22;1299;48.282;14.398;2022-08-01T15:04:46;30.00;99.90
2579;DHT22;1299;48.282;14.398;2022-08-01T15:07:13;30.00;99.90
2579;DHT22;1299;48.282;14.398;2022-08-01T15:09:41;30.30;99.90
2579;DHT22;1299;48.282;14.398;2022-08-01T15:12:10;30.10;99.90
2579;DHT22;1299;48.282;14.398;2022-08-01T15:14:37;30.00;99.90
2579;DHT22;1299;48.282;14.398;2022-08-01T15:17:21;30.00;99.90
2579;DHT22;1299;48.282;14.398;2022-08-01T15:19:49;30.30;99.90
2579;DHT22;1299;48.282;14.398;2022-08-01T15:22:16;30.40;99.90
2579;DHT22;1299;48.282;14.398;2022-08-01T15:24:44;30.40;99.20
2579;DHT22;1299;48.282;14.398;2022-08-01T15:27:14;30.50;99.90
2579;DHT22;1299;48.282;14.398;2022-08-01T15:29:41;30.60;97.90
2579;DHT22;1299;48.282;14.398;2022-08-01T15:32:09;30.60;98.20
2579;DHT22;1299;48.282;14.398;2022-08-01T15:34:38;30.40;96.70
2579;DHT22;1299;48.282;14.398;2022-08-01T15:37:08;30.30;98.40
2579;DHT22;1299;48.282;14.398;2022-08-01T15:39:36;30.40;98.10
2579;DHT22;1299;48.282;14.398;2022-08-01T15:42:05;30.40;99.40
2579;DHT22;1299;48.282;14.398;2022-08-01T15:44:33;30.40;97.00
2579;DHT22;1299;48.282;14.398;2022-08-01T15:47:01;30.10;95.40
2579;DHT22;1299;48.282;14.398;2022-08-01T15:49:30;30.00;95.90
2579;DHT22;1299;48.282;14.398;2022-08-01T15:51:59;30.00;97.00
2579;DHT22;1299;48.282;14.398;2022-08-01T15:54:26;29.80;99.00
2579;DHT22;1299;48.282;14.398;2022-08-01T15:56:53;29.60;97.30
2579;DHT22;1299;48.282;14.398;2022-08-01T15:59:20;29.80;97.30
2579;DHT22;1299;48.282;14.398;2022-08-01T16:01:47;29.70;98.60
2579;DHT22;1299;48.282;14.398;2022-08-01T16:04:15;29.70;99.70